Terminal Aerodrome Forecast
Issued by NWS

Home | Current Version | Previous Version | Text Only | Print | Product List | Glossary On
Versions: 1 2 3 4 5 6 7 8 9 10 11 12 13 14 15 16 17 18
000
FTUS42 KKEY 260900 AAA
TAFMTH
TAF AMD
KMTH 260900Z 2609/2706 21009KT P6SM VCSH SCT040 SCT070
     FM261300 34012G20KT P6SM VCSH SCT015 BKN050
      TEMPO 2614/2616 BKN015
     FM270000 01014G20KT P6SM SCT050=

USA.gov is the U.S. government's official web portal to all federal, state and local government web resources and services.